Time;durP1;ratioP1;P1;durP2;ratioP2;P2;SDS_P1;SDS_P2;PMS_P1;PMS_P2;Temp;Humidity;BMP_temperature;BMP_pressure;BME280_temperature;BME280_humidity;BME280_pressure;Samples;Min_cycle;Max_cycle;Signal;HPM_P1;HPM_P2
2022/09/16 00:01:48;;;;;;;10.80;4.50;;;;;;;12.97;98.01;96839.69;5016528;28;20073;-63
2022/09/16 00:04:16;;;;;;;21.30;5.50;;;;;;;12.98;98.28;96846.75;5008987;28;20046;-63
2022/09/16 00:06:43;;;;;;;6.72;3.53;;;;;;;12.98;96.43;96835.06;5025191;28;20568;-63
2022/09/16 00:09:09;;;;;;;6.65;4.60;;;;;;;12.85;96.91;96834.59;5020112;28;20476;-64
2022/09/16 00:11:36;;;;;;;13.07;4.25;;;;;;;12.68;100.00;96837.66;5026255;28;20123;-63
2022/09/16 00:14:03;;;;;;;6.22;4.25;;;;;;;12.41;100.00;96832.59;5027829;28;20049;-63
2022/09/16 00:16:29;;;;;;;7.95;3.83;;;;;;;12.41;100.00;96829.91;5026356;28;20079;-63
2022/09/16 00:18:59;;;;;;;9.32;3.95;;;;;;;12.30;100.00;96829.94;5018987;28;20520;-63
2022/09/16 00:21:27;;;;;;;7.75;4.18;;;;;;;12.16;100.00;96834.34;5016716;28;20069;-63
2022/09/16 00:23:57;;;;;;;8.43;4.45;;;;;;;12.15;100.00;96832.69;5012186;28;20052;-63
2022/09/16 00:26:24;;;;;;;7.13;4.40;;;;;;;12.17;100.00;96828.59;5026989;28;20068;-63
2022/09/16 00:28:51;;;;;;;8.82;4.55;;;;;;;12.14;100.00;96826.47;5020077;28;20037;-63
2022/09/16 00:31:17;;;;;;;8.98;4.78;;;;;;;12.19;100.00;96831.06;5009989;28;20524;-63
2022/09/16 00:33:44;;;;;;;7.68;4.57;;;;;;;12.25;100.00;96837.28;5014416;28;20044;-63
2022/09/16 00:36:14;;;;;;;8.93;4.45;;;;;;;12.20;100.00;96838.13;5024017;28;20507;-63
2022/09/16 00:38:41;;;;;;;7.22;4.47;;;;;;;12.22;100.00;96838.66;5024799;28;20069;-63
2022/09/16 00:41:14;;;;;;;6.10;4.15;;;;;;;12.22;100.00;96827.78;5007489;28;20531;-63
2022/09/16 00:43:52;;;;;;;10.82;4.88;;;;;;;12.38;100.00;96825.84;5028116;28;20080;-64
2022/09/16 00:46:41;;;;;;;8.50;4.90;;;;;;;12.36;100.00;96828.03;5021157;28;20048;-63
2022/09/16 00:49:19;;;;;;;8.13;5.28;;;;;;;12.44;100.00;96826.63;5012301;28;20105;-63
2022/09/16 00:51:49;;;;;;;7.22;4.47;;;;;;;12.41;100.00;96828.00;5026065;28;20515;-63
2022/09/16 00:54:19;;;;;;;8.07;5.00;;;;;;;12.54;100.00;96834.75;5041001;28;20136;-64
2022/09/16 00:56:50;;;;;;;9.25;5.80;;;;;;;12.63;100.00;96837.69;5026433;28;20103;-63
2022/09/16 00:59:26;;;;;;;7.87;4.67;;;;;;;12.64;100.00;96839.31;5018757;28;20066;-63
2022/09/16 01:01:55;;;;;;;10.48;4.93;;;;;;;12.59;100.00;96840.16;5015935;28;20367;-63
2022/09/16 01:04:28;;;;;;;7.63;4.63;;;;;;;12.63;100.00;96836.91;5023994;28;20045;-63
2022/09/16 01:06:55;;;;;;;9.57;4.57;;;;;;;12.72;100.00;96833.28;5023531;28;20120;-63
2022/09/16 01:09:24;;;;;;;6.82;3.85;;;;;;;12.75;100.00;96834.63;5020373;28;20130;-63
2022/09/16 01:11:51;;;;;;;7.32;3.50;;;;;;;12.74;100.00;96831.13;5023619;28;20104;-63
2022/09/16 01:17:31;;;;;;;6.93;4.30;;;;;;;12.47;100.00;96837.78;5008161;28;20089;-63
2022/09/16 01:20:16;;;;;;;5.95;4.00;;;;;;;12.47;100.00;96837.78;5015211;28;20535;-63
2022/09/16 01:23:04;;;;;;;7.35;3.95;;;;;;;12.33;100.00;96834.81;5020612;28;20174;-64
2022/09/16 01:25:57;;;;;;;9.20;3.67;;;;;;;12.06;100.00;96844.09;5016929;28;20099;-63
2022/09/16 01:28:44;;;;;;;6.60;3.97;;;;;;;12.06;100.00;96840.59;4997366;28;20115;-63
2022/09/16 01:31:17;;;;;;;7.10;4.13;;;;;;;11.99;100.00;96838.13;5007751;28;20092;-63
2022/09/16 01:33:58;;;;;;;6.15;4.32;;;;;;;12.03;100.00;96835.69;5024788;28;20099;-64
2022/09/16 01:36:46;;;;;;;8.88;4.30;;;;;;;11.96;100.00;96838.69;5012297;28;20382;-63
2022/09/16 01:39:26;;;;;;;8.23;3.97;;;;;;;11.90;100.00;96837.06;5007090;28;20125;-63
2022/09/16 01:42:36;;;;;;;9.65;5.03;;;;;;;11.88;100.00;96844.66;5015418;28;20587;-63
2022/09/16 01:45:11;;;;;;;11.27;4.68;;;;;;;11.78;100.00;96840.06;5021693;28;20314;-63
2022/09/16 01:47:54;;;;;;;8.73;5.60;;;;;;;11.82;100.00;96846.56;5017708;28;20430;-63
2022/09/16 01:50:27;;;;;;;6.75;4.68;;;;;;;11.81;100.00;96850.38;5006412;28;20259;-63
2022/09/16 01:53:04;;;;;;;9.02;4.75;;;;;;;11.74;100.00;96847.94;5029349;28;20064;-64
2022/09/16 01:55:36;;;;;;;10.27;4.55;;;;;;;11.67;100.00;96853.63;5016021;28;20426;-63
2022/09/16 01:58:13;;;;;;;6.72;4.25;;;;;;;11.64;100.00;96845.25;5026388;28;20065;-64
2022/09/16 02:00:41;;;;;;;8.65;4.35;;;;;;;11.65;100.00;96841.44;5012571;28;20037;-63
2022/09/16 02:03:12;;;;;;;7.07;4.25;;;;;;;11.63;100.00;96830.84;5024420;28;20468;-63
2022/09/16 02:06:00;;;;;;;6.45;4.10;;;;;;;11.59;100.00;96813.50;5025105;28;20049;-63
2022/09/16 02:08:33;;;;;;;9.35;4.15;;;;;;;11.50;100.00;96820.56;5023060;28;20111;-63
2022/09/16 02:11:04;;;;;;;8.57;4.50;;;;;;;11.55;100.00;96834.13;5023944;28;20112;-63
2022/09/16 02:13:50;;;;;;;9.15;4.75;;;;;;;11.49;100.00;96824.34;5025865;28;20145;-63
2022/09/16 02:16:30;;;;;;;7.93;3.97;;;;;;;11.36;100.00;96840.09;5012272;28;20566;-63
2022/09/16 02:19:04;;;;;;;5.95;3.90;;;;;;;11.39;100.00;96833.31;5020241;28;20128;-63
2022/09/16 02:21:33;;;;;;;8.00;4.13;;;;;;;11.17;100.00;96837.09;5015787;28;20484;-63
2022/09/16 02:24:04;;;;;;;6.97;3.90;;;;;;;11.29;100.00;96832.22;5014264;28;20549;-63
2022/09/16 02:26:35;;;;;;;11.87;5.20;;;;;;;11.21;100.00;96834.63;5010520;28;20060;-63
2022/09/16 02:29:06;;;;;;;;;;;;;;;11.11;100.00;96832.72;5026447;28;20069;-63
2022/09/16 02:31:36;;;;;;;8.63;3.83;;;;;;;11.07;100.00;96829.75;5021197;28;19921;-63
2022/09/16 02:34:12;;;;;;;8.95;3.50;;;;;;;11.14;100.00;96830.31;5014947;28;20296;-63
2022/09/16 02:36:43;;;;;;;10.35;4.07;;;;;;;11.14;100.00;96834.91;5022057;28;20128;-63
2022/09/16 02:39:15;;;;;;;7.93;3.97;;;;;;;11.11;100.00;96833.56;5016301;28;20619;-63
2022/09/16 02:41:41;;;;;;;7.88;3.92;;;;;;;11.13;100.00;96830.56;5017212;28;20890;-63
2022/09/16 02:44:09;;;;;;;6.15;4.18;;;;;;;11.13;100.00;96833.28;5022308;28;20116;-63
2022/09/16 02:46:55;;;;;;;5.03;3.33;;;;;;;10.99;100.00;96839.19;5014743;28;20523;-63
2022/09/16 02:49:24;;;;;;;9.05;3.67;;;;;;;10.93;100.00;96826.75;5012946;28;20526;-63
2022/09/16 02:52:16;;;;;;;5.45;3.92;;;;;;;10.96;100.00;96822.69;5027358;28;20037;-63
2022/09/16 02:54:54;;;;;;;8.43;3.85;;;;;;;10.96;100.00;96820.78;5022357;28;20120;-63
2022/09/16 02:57:21;;;;;;;7.15;3.78;;;;;;;10.98;100.00;96815.91;5020937;28;20234;-63
2022/09/16 02:59:48;;;;;;;11.95;4.97;;;;;;;10.96;100.00;96822.69;5029301;28;20068;-63
2022/09/16 03:02:15;;;;;;;6.80;3.97;;;;;;;10.95;100.00;96826.47;5010014;28;20053;-63
2022/09/16 03:04:41;;;;;;;13.55;5.72;;;;;;;10.86;100.00;96824.28;5014851;28;20049;-63
2022/09/16 03:07:10;;;;;;;7.43;4.35;;;;;;;10.87;100.00;96820.50;5016830;28;20140;-64
2022/09/16 03:09:41;;;;;;;9.38;4.22;;;;;;;10.91;100.00;96823.50;5021868;28;20044;-63
2022/09/16 03:12:26;;;;;;;12.48;5.00;;;;;;;11.02;100.00;96821.63;5023366;28;20077;-62
2022/09/16 03:14:58;;;;;;;8.02;4.22;;;;;;;10.94;100.00;96817.53;5020014;28;20520;-64
2022/09/16 03:17:33;;;;;;;6.75;4.10;;;;;;;11.01;100.00;96823.50;5027682;28;20124;-63
2022/09/16 03:20:19;;;;;;;13.88;4.50;;;;;;;11.08;100.00;96825.94;5026055;28;20033;-63
2022/09/16 03:22:54;;;;;;;10.43;4.13;;;;;;;11.09;100.00;96822.16;5013821;28;20128;-63
2022/09/16 03:25:36;;;;;;;10.43;6.03;;;;;;;11.35;100.00;96807.81;5013492;28;20059;-63
2022/09/16 03:28:08;;;;;;;;;;;;;;;11.22;100.00;96818.13;5028809;28;20440;-63
2022/09/16 03:30:43;;;;;;;6.22;4.45;;;;;;;11.24;100.00;96820.56;5009000;28;20045;-63
2022/09/16 03:33:24;;;;;;;9.55;5.05;;;;;;;11.24;100.00;96815.94;5021236;28;20052;-63
2022/09/16 03:35:54;;;;;;;6.00;4.28;;;;;;;11.24;100.00;96818.66;5017109;28;20124;-63
2022/09/16 03:38:22;;;;;;;11.55;3.88;;;;;;;11.34;100.00;96811.59;5027180;28;20125;-63
2022/09/16 03:40:49;;;;;;;8.57;4.40;;;;;;;11.38;100.00;96809.97;5026621;28;20521;-63
2022/09/16 03:43:16;;;;;;;10.02;4.35;;;;;;;11.41;100.00;96804.84;5017165;28;20129;-63
2022/09/16 03:45:43;;;;;;;6.82;3.70;;;;;;;11.43;100.00;96810.00;5019780;28;20072;-63
2022/09/16 03:48:11;;;;;;;8.02;3.78;;;;;;;11.43;100.00;96804.56;5027488;28;20533;-63
2022/09/16 03:50:38;;;;;;;8.68;3.70;;;;;;;11.47;100.00;96807.53;5027798;28;20117;-63
2022/09/16 03:53:04;;;;;;;8.45;4.10;;;;;;;11.48;100.00;96798.31;5028231;28;20037;-63
2022/09/16 03:55:31;;;;;;;6.32;3.35;;;;;;;11.46;100.00;96795.88;5027041;28;20059;-64
2022/09/16 03:57:57;;;;;;;7.63;4.13;;;;;;;11.50;100.00;96799.66;5020112;28;20046;-63
2022/09/16 04:00:24;;;;;;;7.50;3.33;;;;;;;11.67;100.00;96793.97;5013507;28;20128;-63
2022/09/16 04:02:50;;;;;;;9.88;4.13;;;;;;;11.63;100.00;96797.50;5025533;28;20037;-63
2022/09/16 04:05:16;;;;;;;11.13;5.32;;;;;;;11.44;100.00;96800.78;5026259;28;20109;-63
2022/09/16 04:07:43;;;;;;;9.75;4.13;;;;;;;11.36;100.00;96799.44;5025405;28;20061;-63
2022/09/16 04:10:11;;;;;;;7.07;3.78;;;;;;;11.41;100.00;96794.00;5027736;28;20042;-64
2022/09/16 04:12:37;;;;;;;10.73;4.07;;;;;;;11.43;100.00;96791.03;5022188;28;20069;-63
2022/09/16 04:15:04;;;;;;;6.40;4.20;;;;;;;11.48;100.00;96791.00;5019981;28;20099;-63
2022/09/16 04:17:31;;;;;;;6.85;4.18;;;;;;;11.51;100.00;96784.22;5026813;28;20034;-63
2022/09/16 04:19:58;;;;;;;;;;;;;;;11.55;100.00;96780.72;5027364;28;20034;-63
2022/09/16 04:22:27;;;;;;;;;;;;;;;11.70;100.00;96781.75;5017749;28;19931;-63
2022/09/16 04:24:53;;;;;;;;;;;;;;;11.61;100.00;96778.00;5028264;28;19928;-63
2022/09/16 04:27:19;;;;;;;;;;;;;;;11.45;100.00;96786.94;5017937;28;19968;-63
2022/09/16 04:29:46;;;;;;;;;;;;;;;11.54;100.00;96780.97;5023153;28;19931;-63
2022/09/16 04:32:12;;;;;;;;;;;;;;;11.59;100.00;96778.25;5013816;28;19927;-63
2022/09/16 04:34:38;;;;;;;;;;;;;;;11.54;100.00;96779.06;5027603;28;20016;-63
2022/09/16 04:37:05;;;;;;;;;;;;;;;11.63;100.00;96781.22;5012248;28;19921;-63
2022/09/16 04:39:31;;;;;;;;;;;;;;;11.60;100.00;96781.78;5009547;28;19927;-63
2022/09/16 04:41:58;;;;;;;;;;;;;;;11.61;100.00;96784.22;5016346;28;19965;-63
2022/09/16 04:44:25;;;;;;;;;;;;;;;11.54;100.00;96784.50;5028072;28;20409;-63
2022/09/16 04:46:52;;;;;;;;;;;;;;;11.48;100.00;96790.19;5013510;28;19921;-63
2022/09/16 04:49:18;;;;;;;;;;;;;;;11.47;100.00;96783.16;5012200;28;19921;-63
2022/09/16 04:51:44;;;;;;;;;;;;;;;11.43;100.00;96789.09;5016727;28;20342;-63
2022/09/16 04:54:11;;;;;;;;;;;;;;;11.34;100.00;96789.91;5043084;28;19925;-63
2022/09/16 04:56:37;;;;;;;;;;;;;;;11.36;100.00;96796.72;5013729;28;19925;-64
2022/09/16 04:59:04;;;;;;;;;;;;;;;11.49;100.00;96803.47;5012473;28;19921;-63
2022/09/16 05:01:32;;;;;;;;;;;;;;;11.42;100.00;96797.50;5014114;28;19928;-63
2022/09/16 05:04:02;;;;;;;;;;;;;;;11.40;100.00;96805.09;5026951;28;19921;-63
2022/09/16 05:06:31;;;;;;;;;;;;;;;11.43;100.00;96796.44;5025120;28;20004;-63
2022/09/16 05:08:59;;;;;;;;;;;;;;;11.30;100.00;96795.91;5017577;28;19967;-63
2022/09/16 05:11:26;;;;;;;;;;;;;;;11.41;100.00;96795.88;5015731;28;19948;-63
2022/09/16 05:13:53;;;;;;;;;;;;;;;11.47;100.00;96785.84;5028667;28;19925;-63
2022/09/16 05:16:21;;;;;;;;;;;;;;;11.54;100.00;96789.91;5019422;28;20395;-63
2022/09/16 05:18:49;;;;;;;;;;;;;;;11.58;100.00;96785.56;5007019;28;19921;-63
2022/09/16 05:21:17;;;;;;;;;;;;;;;11.70;100.00;96792.63;5020751;28;20451;-63
2022/09/16 05:23:44;;;;;;;;;;;;;;;11.65;100.00;96793.41;5016518;28;20012;-63
2022/09/16 05:26:22;;;;;;;;;;;;;;;11.56;100.00;96793.19;5025276;28;19920;-63
2022/09/16 05:28:52;;;;;;;;;;;;;;;11.49;100.00;96786.38;5020694;28;20459;-63
2022/09/16 05:31:25;;;;;;;;;;;;;;;11.54;100.00;96786.41;5015759;28;20481;-63
2022/09/16 05:33:56;;;;;;;;;;;;;;;11.63;100.00;96792.06;5025838;28;19929;-63
2022/09/16 05:36:23;;;;;;;;;;;;;;;11.54;100.00;96794.53;5025551;28;19921;-63
2022/09/16 05:38:50;;;;;;;;;;;;;;;11.56;100.00;96792.34;5022199;28;19945;-63
2022/09/16 05:41:36;;;;;;;;;;;;;;;11.60;100.00;96793.44;5014872;28;19935;-63
2022/09/16 05:44:03;;;;;;;;;;;;;;;11.51;100.00;96790.47;5024676;28;20247;-63
2022/09/16 05:46:29;;;;;;;;;;;;;;;11.55;100.00;96796.16;5017558;28;19921;-63
2022/09/16 05:48:55;;;;;;;;;;;;;;;11.58;100.00;96793.69;5008777;28;20376;-63
2022/09/16 05:51:23;;;;;;;;;;;;;;;11.62;100.00;96793.16;5022910;28;19975;-63
2022/09/16 05:53:49;;;;;;;;;;;;;;;11.75;100.00;96800.72;5025708;28;20461;-63
2022/09/16 05:56:17;;;;;;;;;;;;;;;11.69;100.00;96797.22;5016055;28;21718;-63
2022/09/16 05:58:45;;;;;;;;;;;;;;;11.67;100.00;96790.44;5024783;28;19921;-63
2022/09/16 06:01:12;;;;;;;;;;;;;;;11.71;100.00;96791.53;5011387;28;19996;-63
2022/09/16 06:03:39;;;;;;;;;;;;;;;11.77;100.00;96801.28;5016727;28;19929;-63
2022/09/16 06:06:18;;;;;;;;;;;;;;;11.76;100.00;96796.94;5018610;28;20166;-63
2022/09/16 06:08:44;;;;;;;;;;;;;;;11.81;100.00;96791.53;5022832;28;19925;-63
2022/09/16 06:11:11;;;;;;;;;;;;;;;11.78;100.00;96793.94;5022440;28;20016;-64
2022/09/16 06:13:38;;;;;;;;;;;;;;;11.86;100.00;96798.81;5026283;28;20028;-63
2022/09/16 06:16:05;;;;;;;;;;;;;;;11.78;99.30;96796.66;5012173;28;19932;-64
2022/09/16 06:18:33;;;;;;;5.28;2.95;;;;;;;11.86;100.00;96793.38;5016633;28;19925;-64
2022/09/16 06:21:05;;;;;;;8.10;3.70;;;;;;;11.89;100.00;96813.72;5021407;28;20529;-63
2022/09/16 06:23:33;;;;;;;5.38;3.00;;;;;;;11.82;100.00;96814.84;5024110;28;20128;-64
2022/09/16 06:26:20;;;;;;;5.13;3.50;;;;;;;11.91;100.00;96814.28;5025187;28;20037;-63
2022/09/16 06:28:48;;;;;;;8.65;3.47;;;;;;;11.89;100.00;96811.84;5013888;28;20374;-64
2022/09/16 06:31:17;;;;;;;8.88;3.42;;;;;;;11.81;100.00;96812.41;5020460;28;20123;-64
2022/09/16 06:33:44;;;;;;;6.57;3.10;;;;;;;11.77;100.00;96819.44;5017885;28;20042;-63
2022/09/16 06:36:17;;;;;;;6.40;3.58;;;;;;;11.82;100.00;96809.41;5013032;28;20272;-62
2022/09/16 06:38:44;;;;;;;6.97;3.53;;;;;;;11.72;100.00;96806.69;5012146;28;20045;-63
2022/09/16 06:41:13;;;;;;;8.73;4.03;;;;;;;11.71;100.00;96805.06;5018716;28;20057;-63
2022/09/16 06:43:39;;;;;;;12.07;4.82;;;;;;;11.66;100.00;96807.81;5021024;28;20456;-63
2022/09/16 06:46:12;;;;;;;9.60;4.10;;;;;;;11.50;100.00;96805.09;5023158;28;20051;-63
2022/09/16 06:48:41;;;;;;;10.00;4.15;;;;;;;11.40;100.00;96810.53;5023790;28;20045;-64
2022/09/16 06:51:28;;;;;;;6.00;3.92;;;;;;;11.26;100.00;96830.03;5010068;28;20120;-63
2022/09/16 06:54:01;;;;;;;11.05;4.78;;;;;;;11.20;100.00;96831.09;5024254;28;20243;-63
2022/09/16 06:56:27;;;;;;;9.93;4.68;;;;;;;11.22;100.00;96828.94;5023690;28;20535;-63
2022/09/16 06:58:54;;;;;;;8.85;5.07;;;;;;;11.24;100.00;96825.97;5023460;28;20475;-63
2022/09/16 07:01:27;;;;;;;9.45;5.45;;;;;;;11.26;100.00;96830.03;5022551;28;20104;-63
2022/09/16 07:03:55;;;;;;;11.20;6.03;;;;;;;11.27;100.00;96831.66;5026177;28;20124;-63
2022/09/16 07:06:23;;;;;;;8.75;5.10;;;;;;;11.25;100.00;96835.72;5025596;28;20560;-64
2022/09/16 07:09:10;;;;;;;8.57;4.93;;;;;;;11.26;100.00;96845.47;5025909;28;20411;-63
2022/09/16 07:11:36;;;;;;;7.63;4.88;;;;;;;11.32;100.00;96849.84;5028186;28;20041;-63
2022/09/16 07:14:03;;;;;;;11.32;5.50;;;;;;;11.27;100.00;96845.22;5025373;28;20069;-63
2022/09/16 07:16:30;;;;;;;8.93;4.63;;;;;;;11.28;100.00;96833.28;5022603;28;20159;-64
2022/09/16 07:18:58;;;;;;;9.20;5.07;;;;;;;11.25;100.00;96822.19;5005824;28;20046;-63
2022/09/16 07:21:28;;;;;;;7.35;4.38;;;;;;;11.17;100.00;96815.41;5005363;28;20042;-63
2022/09/16 07:23:57;;;;;;;9.57;4.45;;;;;;;11.14;100.00;96826.78;5005800;28;20305;-63
2022/09/16 07:26:27;;;;;;;10.88;5.43;;;;;;;11.30;100.00;96825.72;5005305;28;20050;-63
2022/09/16 07:28:57;;;;;;;9.35;5.43;;;;;;;11.43;100.00;96828.97;5018610;28;20136;-63
2022/09/16 07:31:27;;;;;;;10.52;4.55;;;;;;;11.41;100.00;96826.53;5026903;28;20065;-63
2022/09/16 07:33:55;;;;;;;6.90;4.38;;;;;;;11.33;100.00;96832.47;5029014;28;20140;-63
2022/09/16 07:36:35;;;;;;;11.43;4.20;;;;;;;11.44;100.00;96823.28;5029030;28;20049;-63
2022/09/16 07:39:03;;;;;;;7.03;3.65;;;;;;;11.28;100.00;96833.28;5029215;28;20038;-63
2022/09/16 07:41:32;;;;;;;9.75;4.38;;;;;;;11.48;100.00;96834.38;5030621;28;20120;-63
2022/09/16 07:44:00;;;;;;;8.35;4.00;;;;;;;11.60;100.00;96841.44;5048505;28;20131;-63
2022/09/16 07:46:30;;;;;;;7.13;3.75;;;;;;;11.56;100.00;96841.97;5048618;28;20397;-63
2022/09/16 07:48:58;;;;;;;6.10;3.63;;;;;;;11.55;100.00;96837.66;5048626;28;20068;-63
2022/09/16 07:51:27;;;;;;;8.13;4.40;;;;;;;11.50;100.00;96843.03;5048099;28;20037;-63
2022/09/16 07:53:58;;;;;;;11.48;4.55;;;;;;;11.44;100.00;96838.72;5024891;28;20046;-63
2022/09/16 07:56:27;;;;;;;8.32;4.40;;;;;;;11.56;100.00;96835.72;5022752;28;20049;-63
2022/09/16 07:58:55;;;;;;;6.93;4.57;;;;;;;11.55;100.00;96842.25;5022084;28;20076;-63
2022/09/16 08:01:22;;;;;;;8.63;4.60;;;;;;;11.74;100.00;96847.09;5023267;28;20042;-63
2022/09/16 08:03:49;;;;;;;9.93;5.03;;;;;;;11.78;100.00;96843.59;5023909;28;20052;-63
2022/09/16 08:06:22;;;;;;;8.68;4.60;;;;;;;11.99;100.00;96848.16;5026782;28;20136;-63
2022/09/16 08:08:51;;;;;;;11.43;5.68;;;;;;;11.80;100.00;96846.84;5019967;28;20128;-63
2022/09/16 08:11:18;;;;;;;7.55;4.30;;;;;;;11.68;100.00;96849.00;5026507;28;20056;-63
2022/09/16 08:13:45;;;;;;;8.50;4.88;;;;;;;11.86;100.00;96849.56;5026997;28;20053;-63
2022/09/16 08:16:11;;;;;;;9.65;4.43;;;;;;;11.70;100.00;96855.81;5014196;28;20057;-63
2022/09/16 08:18:38;;;;;;;8.60;5.20;;;;;;;11.81;100.00;96862.03;5023742;28;20045;-63
2022/09/16 08:21:07;;;;;;;9.48;4.88;;;;;;;11.88;100.00;96863.66;5032399;28;20119;-64
2022/09/16 08:23:35;;;;;;;9.48;4.57;;;;;;;12.00;100.00;96860.63;5019276;28;20140;-63
2022/09/16 08:26:02;;;;;;;7.25;4.05;;;;;;;11.93;100.00;96860.94;5029989;28;20500;-63
2022/09/16 08:28:29;;;;;;;7.35;3.92;;;;;;;11.84;100.00;96856.06;5026587;28;20045;-63
2022/09/16 08:31:18;;;;;;;6.38;3.85;;;;;;;11.90;100.00;96858.78;5035147;28;20052;-63
2022/09/16 08:33:44;;;;;;;8.52;4.13;;;;;;;11.96;100.00;96854.97;5039330;28;20072;-63
2022/09/16 08:36:18;;;;;;;15.55;6.00;;;;;;;11.88;100.00;96853.63;5035616;28;20145;-64
2022/09/16 08:38:46;;;;;;;10.25;4.45;;;;;;;12.12;100.00;96861.19;5028225;28;20120;-63
2022/09/16 08:41:16;;;;;;;8.60;4.53;;;;;;;12.00;100.00;96871.50;5025166;28;20048;-63
2022/09/16 08:44:03;;;;;;;8.55;4.65;;;;;;;12.05;100.00;96869.63;5023511;28;20055;-63
2022/09/16 08:46:35;;;;;;;6.72;4.30;;;;;;;12.03;100.00;96862.81;5039439;28;20131;-63
2022/09/16 08:49:34;;;;;;;8.57;4.70;;;;;;;12.13;100.00;96864.72;5034736;28;20045;-63
2022/09/16 08:52:12;;;;;;;7.57;4.05;;;;;;;12.17;100.00;96865.81;5025806;28;20219;-63
2022/09/16 08:54:46;;;;;;;8.02;3.92;;;;;;;12.38;100.00;96865.75;5021771;28;20045;-63
2022/09/16 08:57:18;;;;;;;6.30;4.22;;;;;;;12.56;100.00;96873.28;5025886;28;20584;-63
2022/09/16 08:59:50;;;;;;;6.90;4.78;;;;;;;12.40;100.00;96867.09;5025059;28;20033;-63
2022/09/16 09:02:39;;;;;;;6.30;3.80;;;;;;;12.40;100.00;96869.81;5025128;28;20132;-64
2022/09/16 09:05:30;;;;;;;6.22;3.75;;;;;;;12.23;100.00;96870.13;5022608;28;20728;-63
2022/09/16 09:08:22;;;;;;;5.60;3.60;;;;;;;12.27;100.00;96864.97;5022132;28;20120;-63
2022/09/16 09:10:56;;;;;;;8.38;3.83;;;;;;;12.25;98.99;96869.84;5019017;28;20064;-63
2022/09/16 09:14:01;;;;;;;6.50;3.90;;;;;;;12.19;100.00;96872.59;5036667;28;20512;-63
2022/09/16 09:16:43;;;;;;;8.48;3.50;;;;;;;12.42;100.00;96880.41;5025744;28;20498;-63
2022/09/16 09:19:37;;;;;;;7.45;3.22;;;;;;;12.15;100.00;96873.41;5022785;28;20034;-62
2022/09/16 09:22:30;;;;;;;6.43;2.95;;;;;;;12.29;95.53;96860.91;5022178;28;20045;-63
2022/09/16 09:25:40;;;;;;;7.35;3.90;;;;;;;12.50;98.54;96855.41;5019132;28;20041;-63
2022/09/16 09:28:26;;;;;;;9.00;4.07;;;;;;;12.50;97.77;96858.13;5039484;28;20080;-63
2022/09/16 09:31:12;;;;;;;10.80;3.65;;;;;;;12.68;99.50;96869.47;5043089;28;20056;-63
2022/09/16 09:34:12;;;;;;;8.13;3.13;;;;;;;12.77;97.22;96867.78;5031699;28;20088;-63
2022/09/16 09:36:56;;;;;;;7.80;2.75;;;;;;;12.66;95.27;96866.19;5027023;28;20437;-62
2022/09/16 09:39:47;;;;;;;12.43;3.08;;;;;;;12.56;94.26;96867.88;5027266;28;20552;-62
2022/09/16 09:42:26;;;;;;;5.78;2.92;;;;;;;12.75;94.87;96861.81;5034318;28;20052;-63
2022/09/16 09:45:03;;;;;;;6.40;2.65;;;;;;;12.73;95.59;96867.53;5046898;28;20124;-63
2022/09/16 09:47:41;;;;;;;7.20;2.30;;;;;;;12.65;94.41;96859.16;5046457;28;20068;-62
2022/09/16 09:50:17;;;;;;;5.78;2.45;;;;;;;12.60;95.22;96862.69;5046665;28;20583;-63
2022/09/16 09:52:56;;;;;;;7.45;2.60;;;;;;;12.44;95.42;96860.03;5039956;28;20037;-62
2022/09/16 09:55:26;;;;;;;6.70;2.42;;;;;;;12.45;95.13;96858.13;5006865;28;20076;-63
2022/09/16 09:58:00;;;;;;;14.07;3.83;;;;;;;12.44;96.40;96864.66;5011778;28;20473;-62
2022/09/16 10:00:27;;;;;;;7.70;2.63;;;;;;;12.42;94.28;96864.13;5026207;28;20124;-63
2022/09/16 10:03:03;;;;;;;9.48;2.50;;;;;;;12.52;94.59;96866.78;5026750;28;20120;-62
2022/09/16 10:05:30;;;;;;;8.40;2.72;;;;;;;12.52;95.32;96869.50;5025336;28;20049;-62
2022/09/16 10:08:20;;;;;;;5.47;2.45;;;;;;;12.43;93.86;96873.88;5024229;28;20124;-63
2022/09/16 10:10:50;;;;;;;9.63;3.00;;;;;;;12.39;95.62;96873.63;5029305;28;20041;-63
2022/09/16 10:13:18;;;;;;;6.13;2.58;;;;;;;12.35;93.76;96870.63;5022520;28;20037;-63
2022/09/16 10:15:46;;;;;;;6.78;3.25;;;;;;;12.32;98.37;96878.53;5024300;28;20041;-63
2022/09/16 10:18:28;;;;;;;9.52;2.97;;;;;;;12.45;95.79;96874.41;5023377;28;20069;-63
2022/09/16 10:21:16;;;;;;;8.10;2.97;;;;;;;12.32;97.13;96879.31;5023977;28;20057;-63
2022/09/16 10:23:56;;;;;;;7.68;3.95;;;;;;;12.24;99.53;96888.06;5023156;28;20132;-63
2022/09/16 10:26:27;;;;;;;6.88;3.13;;;;;;;12.23;100.00;96887.25;5024834;28;20045;-63
2022/09/16 10:28:56;;;;;;;11.93;2.95;;;;;;;12.21;100.00;96872.31;5023237;28;20518;-63
2022/09/16 10:31:25;;;;;;;7.43;2.88;;;;;;;12.34;99.34;96873.63;5025361;28;20136;-63
2022/09/16 10:33:59;;;;;;;5.25;2.70;;;;;;;12.44;96.43;96859.22;5026587;28;20120;-63
2022/09/16 10:36:31;;;;;;;11.30;2.72;;;;;;;12.58;96.86;96862.16;5025575;28;20076;-63
2022/09/16 10:39:00;;;;;;;4.50;2.70;;;;;;;12.84;96.26;96864.75;5026442;28;20375;-63
2022/09/16 10:41:41;;;;;;;9.18;3.17;;;;;;;13.10;94.66;96868.16;5027265;28;20311;-63
2022/09/16 10:44:15;;;;;;;5.13;2.60;;;;;;;13.20;95.16;96863.75;5046067;28;20326;-63
2022/09/16 10:46:57;;;;;;;9.13;3.40;;;;;;;13.26;96.39;96873.50;5046426;28;20051;-63
2022/09/16 10:49:31;;;;;;;7.60;2.60;;;;;;;13.37;90.52;96866.91;5045622;28;20045;-63
2022/09/16 10:52:28;;;;;;;6.13;2.72;;;;;;;13.28;92.85;96882.19;5035925;28;20038;-63
2022/09/16 10:54:55;;;;;;;5.13;2.42;;;;;;;13.11;93.64;96880.66;5015846;28;20140;-64
2022/09/16 10:57:29;;;;;;;6.22;2.85;;;;;;;13.00;94.26;96887.22;5023866;28;20051;-63
2022/09/16 11:00:11;;;;;;;8.18;3.05;;;;;;;12.82;91.76;96881.34;5022277;28;20512;-63
2022/09/16 11:03:05;;;;;;;8.25;2.42;;;;;;;12.78;94.34;96885.69;5022598;28;20428;-63
2022/09/16 11:05:49;;;;;;;7.53;2.50;;;;;;;12.27;92.19;96876.63;5025001;28;20063;-63
2022/09/16 11:08:34;;;;;;;6.97;2.58;;;;;;;12.44;91.07;96880.94;5016206;28;20582;-63
2022/09/16 11:11:21;;;;;;;6.75;3.08;;;;;;;12.34;93.10;96879.88;5024950;28;20045;-63
2022/09/16 11:14:13;;;;;;;5.95;2.35;;;;;;;12.45;92.90;96887.97;5010420;28;20072;-63
2022/09/16 11:17:02;;;;;;;7.35;2.40;;;;;;;12.53;95.43;96889.34;5009820;28;20552;-63
2022/09/16 11:20:01;;;;;;;7.85;2.75;;;;;;;12.45;94.03;96896.13;5010151;28;20721;-63
2022/09/16 11:22:42;;;;;;;6.57;2.38;;;;;;;12.56;93.67;96886.88;5017532;28;20054;-63
2022/09/16 11:25:36;;;;;;;6.72;2.60;;;;;;;12.39;91.06;96884.50;5009932;28;20493;-64
2022/09/16 11:28:41;;;;;;;7.72;2.72;;;;;;;12.55;92.42;96893.41;5023447;28;20049;-64
2022/09/16 11:31:26;;;;;;;6.00;2.58;;;;;;;12.70;91.31;96889.00;5036981;28;20423;-62
2022/09/16 11:34:13;;;;;;;6.28;2.60;;;;;;;12.88;89.85;96888.38;5039917;28;20059;-64
2022/09/16 11:37:09;;;;;;;6.97;2.58;;;;;;;12.95;87.70;96881.81;5005916;28;20053;-62
2022/09/16 11:40:00;;;;;;;13.13;2.30;;;;;;;13.10;86.68;96880.94;5023016;28;20045;-62
2022/09/16 11:42:34;;;;;;;4.25;1.80;;;;;;;13.22;89.01;96877.88;5036637;28;20237;-63
2022/09/16 11:45:29;;;;;;;8.77;2.20;;;;;;;13.33;87.61;96878.59;5027600;28;20063;-63
2022/09/16 11:47:59;;;;;;;5.82;1.90;;;;;;;13.64;83.88;96867.56;5016015;28;20067;-63
2022/09/16 11:50:50;;;;;;;5.50;2.08;;;;;;;13.71;81.12;96867.22;5026493;28;20362;-63
2022/09/16 11:53:29;;;;;;;5.43;1.80;;;;;;;14.10;77.54;96858.16;5035647;28;20048;-63
2022/09/16 11:56:09;;;;;;;5.72;1.77;;;;;;;14.14;77.34;96864.66;5022725;28;20049;-63
2022/09/16 11:58:45;;;;;;;4.47;1.42;;;;;;;13.88;75.94;96866.78;5020514;28;20073;-63
2022/09/16 12:01:33;;;;;;;4.00;1.70;;;;;;;13.89;78.22;96866.50;5029307;28;20046;-63
2022/09/16 12:04:31;;;;;;;5.10;1.60;;;;;;;14.02;73.12;96859.59;5014593;28;20451;-63
2022/09/16 12:07:16;;;;;;;6.93;2.05;;;;;;;14.10;72.72;96857.34;5021750;28;20500;-63
2022/09/16 12:09:49;;;;;;;5.93;1.50;;;;;;;14.30;71.33;96856.34;5019017;28;20045;-63
2022/09/16 12:12:21;;;;;;;15.02;1.92;;;;;;;14.38;69.07;96852.94;5015157;28;20123;-63